createdAt,value
2019-04-05T00:02:16.540Z,5.90
2019-04-05T00:04:49.182Z,5.90
2019-04-05T00:07:21.970Z,5.90
2019-04-05T00:09:54.602Z,5.90
2019-04-05T00:12:27.263Z,5.90
2019-04-05T00:14:59.895Z,5.90
2019-04-05T00:17:32.547Z,5.90
2019-04-05T00:20:05.394Z,5.90
2019-04-05T00:22:38.337Z,5.90
2019-04-05T00:25:10.957Z,5.90
2019-04-05T00:27:43.604Z,6.00
2019-04-05T00:30:16.238Z,6.00
2019-04-05T00:32:48.880Z,5.90
2019-04-05T00:35:21.534Z,6.00
2019-04-05T00:37:54.170Z,5.90
2019-04-05T00:40:26.808Z,5.90
2019-04-05T00:42:59.463Z,5.90
2019-04-05T00:45:32.113Z,5.90
2019-04-05T00:48:04.759Z,5.90
2019-04-05T00:50:37.388Z,5.90
2019-04-05T00:53:10.026Z,5.90
2019-04-05T00:55:42.657Z,5.90
2019-04-05T00:58:15.289Z,5.90
2019-04-05T01:00:47.935Z,5.90
2019-04-05T01:03:20.586Z,5.80
2019-04-05T01:05:53.223Z,5.80
2019-04-05T01:08:25.890Z,5.90
2019-04-05T01:10:58.510Z,5.90
2019-04-05T01:13:31.167Z,5.90
2019-04-05T01:16:03.798Z,5.90
2019-04-05T01:18:36.456Z,5.90
2019-04-05T01:21:09.093Z,5.90
2019-04-05T01:23:42.220Z,5.90
2019-04-05T01:26:14.850Z,5.90
2019-04-05T01:28:47.523Z,6.00
2019-04-05T01:31:20.187Z,6.00
2019-04-05T01:33:52.831Z,6.00
2019-04-05T01:36:25.471Z,6.00
2019-04-05T01:38:58.129Z,6.00
2019-04-05T01:41:30.765Z,5.90
2019-04-05T01:44:03.407Z,6.00
2019-04-05T01:46:36.035Z,5.90
2019-04-05T01:49:08.685Z,5.90
2019-04-05T01:51:41.498Z,5.90
2019-04-05T01:54:14.154Z,5.90
2019-04-05T01:56:46.794Z,5.90
2019-04-05T01:59:19.454Z,5.90
2019-04-05T02:01:52.088Z,5.90
2019-04-05T02:04:24.728Z,5.90
2019-04-05T02:06:57.367Z,5.90
2019-04-05T02:09:30.030Z,5.90
2019-04-05T02:12:02.657Z,5.90
2019-04-05T02:14:35.322Z,5.90
2019-04-05T02:17:08.053Z,5.90
2019-04-05T02:19:40.713Z,5.90
2019-04-05T02:22:13.344Z,5.90
2019-04-05T02:24:45.977Z,5.90
2019-04-05T02:27:18.610Z,5.90
2019-04-05T02:29:51.274Z,5.90
2019-04-05T02:32:23.906Z,5.90
2019-04-05T02:34:56.555Z,5.90
2019-04-05T02:37:29.278Z,5.90
2019-04-05T02:40:01.945Z,5.90
2019-04-05T02:42:34.619Z,5.90
2019-04-05T02:45:07.374Z,5.90
2019-04-05T02:47:40.432Z,5.80
2019-04-05T02:50:13.099Z,5.80
2019-04-05T02:52:45.744Z,5.80
2019-04-05T02:55:18.403Z,5.80
2019-04-05T02:57:51.037Z,5.80
2019-04-05T03:00:23.687Z,5.70
2019-04-05T03:02:56.335Z,5.70
2019-04-05T03:05:28.988Z,5.80
2019-04-05T03:08:01.626Z,5.70
2019-04-05T03:10:54.406Z,5.80
2019-04-05T03:13:27.030Z,5.80
2019-04-05T03:16:01.079Z,5.80
2019-04-05T03:18:34.136Z,5.80
2019-04-05T03:21:07.529Z,5.80
2019-04-05T03:23:41.433Z,5.70
2019-04-05T03:26:16.616Z,5.80
2019-04-05T03:28:50.489Z,5.70
2019-04-05T03:31:25.073Z,5.70
2019-04-05T03:33:57.508Z,5.70
2019-04-05T03:36:30.154Z,5.80
2019-04-05T03:39:03.478Z,5.80
2019-04-05T03:41:36.126Z,5.80
2019-04-05T03:44:08.755Z,5.80
2019-04-05T03:46:55.625Z,5.80
2019-04-05T03:49:15.746Z,5.80
2019-04-05T03:51:48.409Z,5.80
2019-04-05T03:54:21.044Z,5.80
2019-04-05T03:56:53.714Z,5.80
2019-04-05T03:59:27.178Z,5.80
2019-04-05T04:01:59.820Z,5.80
2019-04-05T04:04:32.449Z,5.80
2019-04-05T04:07:05.103Z,5.80
2019-04-05T04:09:37.811Z,5.80
2019-04-05T04:12:10.462Z,5.80
2019-04-05T04:14:43.083Z,5.70
2019-04-05T04:17:16.046Z,5.70
2019-04-05T04:19:48.715Z,5.70
2019-04-05T04:22:27.715Z,5.70
2019-04-05T04:25:00.354Z,5.70
2019-04-05T04:27:32.995Z,5.70
2019-04-05T04:30:05.735Z,5.70
2019-04-05T04:32:38.390Z,5.70
2019-04-05T04:35:11.021Z,5.70
2019-04-05T04:37:43.771Z,5.70
2019-04-05T04:40:16.407Z,5.70
2019-04-05T04:42:49.063Z,5.70
2019-04-05T04:45:21.700Z,5.70
2019-04-05T04:47:54.428Z,5.70
2019-04-05T04:50:27.061Z,5.70
2019-04-05T04:52:59.690Z,5.70
2019-04-05T04:55:32.337Z,5.80
2019-04-05T04:58:04.984Z,5.80
2019-04-05T05:00:37.609Z,5.70
2019-04-05T05:03:10.270Z,5.80
2019-04-05T05:05:42.909Z,5.70
2019-04-05T05:08:15.618Z,5.80
2019-04-05T05:10:48.281Z,5.80
2019-04-05T05:13:20.951Z,5.80
2019-04-05T05:15:53.719Z,5.70
2019-04-05T05:18:26.417Z,5.80
2019-04-05T05:20:59.082Z,5.80
2019-04-05T05:23:31.756Z,5.80
2019-04-05T05:26:04.457Z,5.80
2019-04-05T05:28:37.168Z,5.80
2019-04-05T05:31:09.830Z,5.80
2019-04-05T05:33:42.493Z,5.80
2019-04-05T05:36:15.190Z,5.80
2019-04-05T05:38:47.925Z,5.80
2019-04-05T05:41:20.588Z,5.90
2019-04-05T05:43:53.243Z,5.90
2019-04-05T05:46:25.887Z,6.00
2019-04-05T05:48:58.538Z,6.00
2019-04-05T05:51:31.159Z,6.10
2019-04-05T05:54:03.854Z,6.10
2019-04-05T05:56:36.528Z,6.20
2019-04-05T05:59:09.179Z,6.30
2019-04-05T06:01:41.815Z,6.30
2019-04-05T06:04:14.479Z,6.40
2019-04-05T06:06:47.115Z,6.50
2019-04-05T06:09:19.802Z,6.50
2019-04-05T06:11:52.438Z,6.60
2019-04-05T06:14:25.071Z,6.60
2019-04-05T06:16:57.702Z,6.70
2019-04-05T06:19:30.366Z,6.70
2019-04-05T06:22:05.390Z,6.80
2019-04-05T06:24:38.036Z,6.70
2019-04-05T06:27:10.670Z,6.70
2019-04-05T06:29:43.357Z,6.70
2019-04-05T06:32:16.001Z,6.60
2019-04-05T06:34:48.646Z,6.60
2019-04-05T06:37:21.284Z,6.60
2019-04-05T06:39:53.949Z,6.70
2019-04-05T06:42:26.602Z,6.70
2019-04-05T06:44:59.250Z,6.80
2019-04-05T06:47:31.874Z,6.70
2019-04-05T06:50:05.358Z,6.60
2019-04-05T06:52:37.990Z,6.60
2019-04-05T06:55:11.114Z,6.60
2019-04-05T06:57:43.969Z,6.50
2019-04-05T07:00:22.591Z,6.60
2019-04-05T07:02:55.372Z,6.70
2019-04-05T07:05:28.040Z,6.70
2019-04-05T07:08:00.667Z,6.80
2019-04-05T07:10:33.330Z,6.80
2019-04-05T07:13:06.123Z,6.90
2019-04-05T07:15:38.840Z,7.00
2019-04-05T07:18:11.477Z,7.10
2019-04-05T07:20:44.132Z,7.30
2019-04-05T07:23:16.766Z,7.40
2019-04-05T07:25:49.429Z,7.50
2019-04-05T07:28:24.901Z,7.60
2019-04-05T07:30:56.467Z,7.60
2019-04-05T07:33:29.098Z,7.60
2019-04-05T07:36:03.432Z,7.90
2019-04-05T07:38:36.154Z,7.90
2019-04-05T07:41:08.786Z,8.30
2019-04-05T07:43:41.437Z,8.40
2019-04-05T07:46:14.074Z,8.80
2019-04-05T07:48:46.708Z,9.10
2019-04-05T07:51:19.361Z,9.50
2019-04-05T07:53:52.012Z,9.80
2019-04-05T07:56:25.039Z,10.30
2019-04-05T07:58:57.666Z,11.00
2019-04-05T08:01:30.315Z,11.60
2019-04-05T08:04:02.947Z,11.90
2019-04-05T08:06:35.748Z,11.60
2019-04-05T08:09:10.051Z,11.30
2019-04-05T08:11:43.778Z,11.50
2019-04-05T08:14:17.989Z,11.60
2019-04-05T08:16:50.766Z,11.40
2019-04-05T08:19:23.409Z,11.40
2019-04-05T08:21:56.046Z,11.00
2019-04-05T08:24:29.158Z,11.00
2019-04-05T08:27:01.817Z,10.80
2019-04-05T08:29:34.446Z,10.60
2019-04-05T08:32:14.502Z,10.30
2019-04-05T08:34:41.475Z,10.10
2019-04-05T08:37:14.177Z,10.10
2019-04-05T08:39:46.837Z,10.00
2019-04-05T08:42:19.497Z,10.20
2019-04-05T08:44:52.147Z,10.50
2019-04-05T08:47:24.798Z,10.80
2019-04-05T08:49:57.435Z,10.90
2019-04-05T08:52:30.118Z,10.80
2019-04-05T08:55:02.806Z,10.70
2019-04-05T08:57:35.474Z,10.60
2019-04-05T09:00:08.383Z,10.50
2019-04-05T09:02:41.052Z,10.40
2019-04-05T09:05:13.745Z,10.40
2019-04-05T09:07:46.412Z,10.30
2019-04-05T09:10:19.049Z,10.00
2019-04-05T09:12:51.746Z,9.90
2019-04-05T09:15:24.375Z,9.90
2019-04-05T09:17:57.105Z,10.00
2019-04-05T09:20:29.738Z,10.00
2019-04-05T09:23:02.383Z,10.20
2019-04-05T09:25:35.123Z,10.20
2019-04-05T09:28:07.774Z,10.20
2019-04-05T09:30:40.545Z,10.30
2019-04-05T09:33:13.252Z,10.20
2019-04-05T09:35:45.951Z,10.20
2019-04-05T09:38:18.603Z,10.40
2019-04-05T09:40:51.252Z,10.60
2019-04-05T09:43:23.927Z,10.60
2019-04-05T09:45:56.582Z,10.50
2019-04-05T09:48:29.241Z,10.50
2019-04-05T09:51:01.872Z,10.40
2019-04-05T09:53:34.543Z,10.30
2019-04-05T09:56:07.163Z,10.30
2019-04-05T09:58:39.861Z,10.40
2019-04-05T10:01:12.500Z,10.40
2019-04-05T10:03:45.171Z,10.60
2019-04-05T10:06:17.826Z,10.60
2019-04-05T10:08:50.493Z,10.60
2019-04-05T10:11:23.145Z,10.50
2019-04-05T10:13:55.790Z,10.60
2019-04-05T10:16:28.494Z,10.70
2019-04-05T10:19:01.181Z,10.60
2019-04-05T10:21:33.803Z,10.70
2019-04-05T10:24:06.447Z,10.80
2019-04-05T10:26:39.119Z,10.80
2019-04-05T10:29:11.774Z,10.90
2019-04-05T10:31:44.409Z,10.80
2019-04-05T10:34:17.076Z,11.00
2019-04-05T10:36:49.722Z,11.10
2019-04-05T10:39:22.382Z,11.10
2019-04-05T10:42:03.518Z,11.10
2019-04-05T10:44:29.416Z,11.30
2019-04-05T10:47:02.060Z,11.50
2019-04-05T10:49:34.707Z,11.60
2019-04-05T10:52:07.337Z,11.30
2019-04-05T10:54:40.005Z,11.40
2019-04-05T10:57:12.689Z,11.70
2019-04-05T10:59:45.351Z,12.00
2019-04-05T11:02:17.996Z,12.10
2019-04-05T11:04:50.809Z,12.10
2019-04-05T11:07:23.567Z,12.00
2019-04-05T11:09:56.234Z,11.90
2019-04-05T11:12:28.863Z,11.70
2019-04-05T11:15:01.672Z,11.70
2019-04-05T11:17:34.327Z,11.70
2019-04-05T11:20:20.712Z,11.60
2019-04-05T11:22:42.454Z,11.50
2019-04-05T11:25:15.127Z,11.40
2019-04-05T11:27:47.783Z,11.30
2019-04-05T11:30:38.926Z,11.30
2019-04-05T11:33:11.591Z,11.20
2019-04-05T11:35:44.255Z,11.10
2019-04-05T11:38:16.879Z,11.20
2019-04-05T11:40:49.523Z,11.20
2019-04-05T11:43:22.142Z,11.10
2019-04-05T11:45:55.314Z,11.10
2019-04-05T11:48:28.281Z,11.10
2019-04-05T11:51:02.321Z,11.10
2019-04-05T11:53:34.970Z,11.20
2019-04-05T11:56:14.561Z,11.20
2019-04-05T11:58:42.151Z,11.20
2019-04-05T12:01:14.810Z,11.30
2019-04-05T12:03:47.441Z,11.30
2019-04-05T12:06:20.114Z,11.30
2019-04-05T12:08:52.745Z,11.30
2019-04-05T12:11:25.412Z,11.30
2019-04-05T12:13:58.035Z,11.20
2019-04-05T12:16:30.739Z,11.30
2019-04-05T12:19:04.765Z,11.20
2019-04-05T12:24:10.275Z,11.00
2019-04-05T12:26:42.949Z,10.70
2019-04-05T12:31:48.002Z,11.10
2019-04-05T12:36:55.611Z,11.00
2019-04-05T12:39:29.802Z,11.10
2019-04-05T12:42:02.537Z,11.20
2019-04-05T12:44:35.158Z,11.00
2019-04-05T12:47:08.102Z,10.80
2019-04-05T12:49:40.752Z,10.80
2019-04-05T12:52:22.602Z,10.60
2019-04-05T12:54:50.971Z,10.60
2019-04-05T12:57:22.166Z,10.60
2019-04-05T12:59:56.454Z,10.50
2019-04-05T13:02:33.925Z,10.50
2019-04-05T13:05:04.553Z,10.50
2019-04-05T13:07:37.207Z,10.20
2019-04-05T13:10:09.904Z,10.30
2019-04-05T13:12:42.659Z,10.20
2019-04-05T13:15:17.126Z,10.20
2019-04-05T13:17:49.694Z,10.10
2019-04-05T13:20:22.334Z,10.10
2019-04-05T13:22:54.977Z,10.10
2019-04-05T13:25:27.619Z,10.20
2019-04-05T13:28:12.716Z,10.10
2019-04-05T13:30:37.824Z,10.10
2019-04-05T13:33:10.523Z,10.10
2019-04-05T13:35:43.153Z,10.20
2019-04-05T13:54:30.105Z,10.20
2019-04-05T13:57:02.734Z,10.40
2019-04-05T13:59:35.470Z,10.50
2019-04-05T14:02:08.951Z,10.50
2019-04-05T14:04:42.547Z,10.50
2019-04-05T14:07:16.049Z,10.40
2019-04-05T14:13:03.363Z,10.50
2019-04-05T14:15:41.719Z,10.40
2019-04-05T14:18:14.348Z,10.30
2019-04-05T14:20:49.684Z,10.30
2019-04-05T14:23:23.891Z,10.20
2019-04-05T14:25:59.817Z,10.20
2019-04-05T14:28:34.148Z,10.10
2019-04-05T14:31:08.513Z,10.10
2019-04-05T14:33:42.066Z,10.10
2019-04-05T14:36:14.745Z,10.20
2019-04-05T14:38:47.397Z,10.20
2019-04-05T14:41:20.063Z,10.30
2019-04-05T14:43:52.775Z,10.30
2019-04-05T14:46:28.224Z,10.30
2019-04-05T14:49:00.723Z,10.30
2019-04-05T14:51:33.881Z,10.20
2019-04-05T14:54:06.522Z,10.20
2019-04-05T14:56:39.191Z,10.20
2019-04-05T14:59:11.838Z,10.20
2019-04-05T15:01:44.631Z,10.20
2019-04-05T15:04:18.900Z,10.10
2019-04-05T15:06:51.548Z,10.00
2019-04-05T15:09:25.504Z,9.90
2019-04-05T15:11:58.630Z,9.80
2019-04-05T15:14:31.930Z,9.90
2019-04-05T15:17:04.664Z,9.90
2019-04-05T15:19:37.328Z,10.00
2019-04-05T15:22:11.782Z,10.00
2019-04-05T15:24:44.593Z,10.00
2019-04-05T15:40:06.468Z,9.90
2019-04-05T15:42:39.115Z,9.70
2019-04-05T15:55:24.786Z,9.60
2019-04-05T15:57:57.429Z,9.60
2019-04-05T16:00:43.190Z,9.60
2019-04-05T16:03:15.844Z,9.60
2019-04-05T16:05:49.809Z,9.60
2019-04-05T16:08:22.449Z,9.50
2019-04-05T16:10:55.085Z,9.50
2019-04-05T16:13:27.757Z,9.50
2019-04-05T16:16:00.396Z,9.40
2019-04-05T16:18:33.084Z,9.40
2019-04-05T16:21:05.729Z,9.40
2019-04-05T16:23:38.377Z,9.50
2019-04-05T16:26:11.101Z,9.50
2019-04-05T16:28:43.812Z,9.50
2019-04-05T16:31:16.499Z,9.50
2019-04-05T16:33:49.167Z,9.50
2019-04-05T16:36:21.809Z,9.50
2019-04-05T16:38:54.511Z,9.50
2019-04-05T16:41:27.147Z,9.40
2019-04-05T16:43:59.788Z,9.40
2019-04-05T16:46:32.441Z,9.40
2019-04-05T16:49:05.142Z,9.40
2019-04-05T16:51:37.793Z,9.50
2019-04-05T16:54:10.485Z,9.50
2019-04-05T16:56:43.120Z,9.50
2019-04-05T16:59:15.793Z,9.50
2019-04-05T17:01:48.478Z,9.50
2019-04-05T17:04:21.106Z,9.50
2019-04-05T17:06:53.765Z,9.40
2019-04-05T17:09:26.529Z,9.70
2019-04-05T17:11:59.173Z,9.50
2019-04-05T17:14:31.808Z,9.50
2019-04-05T17:17:05.220Z,9.50
2019-04-05T17:19:38.835Z,9.50
2019-04-05T17:22:11.477Z,9.50
2019-04-05T17:24:44.185Z,9.50
2019-04-05T17:27:16.842Z,9.30
2019-04-05T17:29:49.506Z,9.30
2019-04-05T17:32:22.161Z,9.20
2019-04-05T17:34:54.888Z,9.10
2019-04-05T17:37:27.547Z,9.10
2019-04-05T17:40:00.358Z,9.00
2019-04-05T17:42:34.815Z,9.10
2019-04-05T17:45:07.519Z,9.00
2019-04-05T17:47:41.268Z,9.00
2019-04-05T17:50:19.526Z,9.10
2019-04-05T17:52:52.217Z,9.10
2019-04-05T17:55:24.910Z,9.00
2019-04-05T17:57:57.749Z,9.10
2019-04-05T18:00:30.407Z,9.00
2019-04-05T18:03:03.053Z,9.00
2019-04-05T18:05:35.704Z,8.90
2019-04-05T18:08:08.341Z,8.90
2019-04-05T18:10:40.985Z,8.90
2019-04-05T18:13:13.621Z,8.90
2019-04-05T18:15:52.361Z,8.90
2019-04-05T18:18:20.697Z,8.90
2019-04-05T18:20:53.341Z,9.00
2019-04-05T18:23:26.014Z,8.90
2019-04-05T18:25:58.713Z,8.90
2019-04-05T18:28:50.671Z,8.90
2019-04-05T18:31:23.315Z,8.90
2019-04-05T18:33:55.969Z,9.10
2019-04-05T18:36:28.711Z,8.80
2019-04-05T18:39:01.430Z,8.80
2019-04-05T18:41:34.115Z,8.80
2019-04-05T18:44:06.757Z,8.80
2019-04-05T18:46:39.450Z,8.80
2019-04-05T18:49:12.174Z,8.80
2019-04-05T18:51:45.096Z,8.70
2019-04-05T18:54:17.727Z,8.80
2019-04-05T18:56:50.372Z,8.50
2019-04-05T18:59:23.014Z,8.80
2019-04-05T19:01:55.689Z,8.80
2019-04-05T19:04:28.317Z,8.80
2019-04-05T19:07:00.973Z,8.80
2019-04-05T19:09:41.712Z,8.80
2019-04-05T19:12:14.497Z,8.80
2019-04-05T19:14:47.191Z,8.80
2019-04-05T19:17:24.185Z,8.80
2019-04-05T19:19:54.212Z,8.80
2019-04-05T19:22:27.085Z,8.70
2019-04-05T19:24:59.749Z,8.70
2019-04-05T19:27:35.539Z,8.70
2019-04-05T19:52:45.651Z,8.60
2019-04-05T19:55:18.343Z,8.50
2019-04-05T19:57:51.137Z,8.60
2019-04-05T20:00:23.861Z,8.50
2019-04-05T20:02:56.665Z,8.50
2019-04-05T20:05:32.555Z,8.50
2019-04-05T20:08:05.292Z,8.50
2019-04-05T20:10:38.094Z,8.60
2019-04-05T20:13:10.886Z,8.60
2019-04-05T20:15:43.586Z,8.50
2019-04-05T20:18:16.581Z,8.60
2019-04-05T20:20:49.230Z,8.60
2019-04-05T20:23:22.194Z,8.60
2019-04-05T20:25:55.531Z,8.50
2019-04-05T20:28:28.214Z,8.50
2019-04-05T20:31:03.394Z,8.50
2019-04-05T20:33:36.767Z,8.50
2019-04-05T20:36:09.503Z,8.40
2019-04-05T20:38:42.217Z,8.50
2019-04-05T20:41:14.839Z,8.50
2019-04-05T20:43:47.482Z,8.60
2019-04-05T20:46:20.134Z,8.50
2019-04-05T20:48:52.775Z,8.60
2019-04-05T20:51:25.658Z,8.60
2019-04-05T20:53:58.342Z,8.60
2019-04-05T20:56:30.966Z,8.60
2019-04-05T20:59:03.622Z,8.70
2019-04-05T21:01:36.259Z,8.60
2019-04-05T21:04:08.945Z,8.60
2019-04-05T21:06:41.575Z,8.70
2019-04-05T21:09:14.293Z,8.60
2019-04-05T21:11:46.886Z,8.60
2019-04-05T21:32:07.925Z,8.60
2019-04-05T21:37:12.954Z,8.60
2019-04-05T21:39:45.671Z,8.70
2019-04-05T22:05:10.629Z,8.40
2019-04-05T22:07:43.297Z,8.70
2019-04-05T22:12:48.304Z,8.70
2019-04-05T22:15:20.945Z,8.70
2019-04-05T22:17:53.579Z,8.70
2019-04-05T22:20:26.214Z,8.70
2019-04-05T22:22:58.839Z,8.70
2019-04-05T22:25:31.481Z,8.70
2019-04-05T22:28:04.103Z,8.90
2019-04-05T22:30:36.807Z,8.70
2019-04-05T22:33:09.435Z,8.70
2019-04-05T22:35:42.093Z,8.70
2019-04-05T22:38:14.717Z,8.60
2019-04-05T22:40:47.361Z,8.70
2019-04-05T22:43:19.983Z,8.70
2019-04-05T22:45:52.623Z,8.70
2019-04-05T22:48:25.271Z,8.70
2019-04-05T22:50:57.894Z,8.70
2019-04-05T22:53:30.531Z,8.70
2019-04-05T22:56:03.170Z,9.00
2019-04-05T22:58:35.798Z,8.70
2019-04-05T23:01:08.445Z,8.70
2019-04-05T23:03:41.085Z,8.70
2019-04-05T23:06:13.770Z,8.70
2019-04-05T23:18:56.728Z,8.80
2019-04-05T23:21:29.374Z,8.80
2019-04-05T23:24:02.033Z,8.80
2019-04-05T23:26:34.677Z,8.70
2019-04-05T23:29:07.304Z,8.70
2019-04-05T23:31:39.961Z,8.80
2019-04-05T23:34:12.662Z,8.80
2019-04-05T23:36:45.338Z,8.70
2019-04-05T23:39:17.972Z,8.80
2019-04-05T23:41:50.602Z,8.80
2019-04-05T23:44:23.213Z,8.80
2019-04-05T23:46:55.984Z,8.80
2019-04-05T23:49:28.645Z,8.70
2019-04-05T23:52:01.658Z,8.80
2019-04-05T23:54:34.285Z,8.80
2019-04-05T23:57:07.040Z,8.80
2019-04-05T23:59:39.687Z,8.80
